Svyataya Anna — UUCV — position and weather

sailwx.info

Track history (hours):
 
Tides and Currents Weather Stations Pressure Air Temp Water Temp Dewpoint Dewpoint Depression Visibility Wind Speed Wind Dir Waves Ship Positions

Svyataya Anna

Last reported at 2017-Mar-26 17:10 UTC. Time now 2017-Mar-30 12:53 UTC.
Position N 43°51' E 023°19'.

Length 93 m; draft 1.8 m.

Type: Cargo ship. MMSI: 272068800.

Date/timePositionNaut miles runAvg speedWind from/ knotsBaromVisibWave heightAir tempDewpointWater temp
2017-Mar-26 17:10N 43°51' E 023°19'4 5.7
2017-Mar-26 16:31N 43°50' E 023°14'0 0.0
2017-Mar-26 15:30N 43°50' E 023°14'0 0.0
2017-Mar-25 20:26N 43°50' E 023°15'1 0.1
2017-Mar-25 11:26N 43°50' E 023°15'0 0.0
2017-Mar-25 10:26N 43°50' E 023°15'0 0.0
2017-Mar-25 09:31N 43°50' E 023°15'0 0.0
2017-Mar-25 08:26N 43°50' E 023°15'0 0.0
2017-Mar-25 07:32N 43°50' E 023°15'0 0.0
2017-Mar-25 06:04N 43°50' E 023°15'0 0.0
2017-Mar-25 05:31N 43°50' E 023°15'0 0.0
2017-Mar-25 04:33N 43°50' E 023°15'0 0.0
2017-Mar-25 03:33N 43°50' E 023°15'0 0.0
2017-Mar-25 02:34N 43°50' E 023°15'0 0.0
2017-Mar-25 01:33N 43°50' E 023°15'0 0.0
2017-Mar-25 00:33N 43°50' E 023°15'0 0.0
2017-Mar-24 23:33N 43°50' E 023°15'0 0.0
2017-Mar-24 22:33N 43°50' E 023°15'0 0.0
2017-Mar-24 21:33N 43°50' E 023°15'0 0.0
2017-Mar-24 20:33N 43°50' E 023°15'0 0.0
2017-Mar-24 19:33N 43°50' E 023°15'0 0.0
2017-Mar-24 18:32N 43°50' E 023°15'0 0.0
2017-Mar-24 11:18N 43°50' E 023°15'0 0.0
2017-Mar-24 07:07N 43°50' E 023°15'0 0.0
2017-Mar-24 06:31N 43°50' E 023°15'0 0.0
2017-Mar-24 05:33N 43°50' E 023°15'0 0.0
2017-Mar-24 04:33N 43°50' E 023°15'0 0.0
2017-Mar-24 03:33N 43°50' E 023°15'0 0.0
2017-Mar-24 00:28N 43°50' E 023°15'0 0.0
2017-Mar-23 23:32N 43°50' E 023°15'0 0.0
2017-Mar-23 22:32N 43°50' E 023°15'0 0.0
2017-Mar-23 21:33N 43°50' E 023°15'0 0.0
2017-Mar-23 20:33N 43°50' E 023°15'0 0.0
2017-Mar-23 19:32N 43°50' E 023°15'0 0.0
2017-Mar-23 18:28N 43°50' E 023°15'0 0.0
2017-Mar-23 04:16N 43°50' E 023°15'0 0.0
2017-Mar-23 03:31N 43°50' E 023°15'0 0.0
2017-Mar-23 01:28N 43°50' E 023°15'0 0.0
2017-Mar-23 00:20N 43°50' E 023°15'0 0.0
2017-Mar-22 23:33N 43°50' E 023°15'0 0.0
2017-Mar-22 22:32N 43°50' E 023°15'0 0.0
2017-Mar-22 21:31N 43°50' E 023°15'0 0.0
2017-Mar-22 20:31N 43°50' E 023°15'0 0.0
2017-Mar-22 19:33N 43°50' E 023°15'0 0.0
2017-Mar-22 05:05N 43°50' E 023°15'0 0.0
2017-Mar-22 04:34N 43°50' E 023°15'0 0.0
2017-Mar-22 03:33N 43°50' E 023°15'0 0.0
2017-Mar-22 02:33N 43°50' E 023°15'0 0.0
2017-Mar-22 00:32N 43°50' E 023°15'0 0.0
2017-Mar-21 23:33N 43°50' E 023°15'0 0.0
2017-Mar-21 22:33N 43°50' E 023°15'0 0.0
2017-Mar-21 21:31N 43°50' E 023°15'0 0.0
2017-Mar-21 20:26N 43°50' E 023°15'0 0.0
2017-Mar-21 19:31N 43°50' E 023°15'0 0.0
2017-Mar-21 08:13N 43°50' E 023°15'0 0.0
2017-Mar-21 06:07N 43°50' E 023°15'0 0.0
2017-Mar-21 05:33N 43°50' E 023°15'0 0.0
2017-Mar-21 04:32N 43°50' E 023°15'0 0.0
2017-Mar-21 02:33N 43°50' E 023°15'0 0.0
2017-Mar-21 01:34N 43°50' E 023°15'0 0.0
2017-Mar-21 00:32N 43°50' E 023°15'0 0.0
2017-Mar-20 23:33N 43°50' E 023°15'0 0.0
2017-Mar-20 10:30N 43°50' E 023°15'0 0.0
2017-Mar-20 06:32N 43°50' E 023°15'0 0.0
2017-Mar-20 05:33N 43°50' E 023°15'0 0.0
2017-Mar-20 04:30N 43°50' E 023°15'0 0.0
2017-Mar-20 03:32N 43°50' E 023°15'0 0.0
2017-Mar-20 02:29N 43°50' E 023°15'0 0.0
2017-Mar-20 01:32N 43°50' E 023°15'0 0.0
2017-Mar-20 00:33N 43°50' E 023°15'0 0.0
2017-Mar-19 23:20N 43°50' E 023°15'0 0.0
2017-Mar-19 22:25N 43°50' E 023°15'0 0.0
2017-Mar-19 19:30N 43°50' E 023°15'0 0.0
2017-Mar-19 15:14N 43°50' E 023°15'1 0.1
2017-Mar-19 06:26N 43°50' E 023°14'3 0.2
2017-Mar-18 16:33N 43°51' E 023°18'27 3.3
2017-Mar-18 08:32N 43°45' E 023°54'  
Track history (hours):
 
Tides and Currents Weather Stations Pressure Air Temp Water Temp Dewpoint Dewpoint Depression Visibility Wind Speed Wind Dir Waves Ship Positions

Svyataya Anna

Last reported at 2017-Mar-26 17:10 UTC. Time now 2017-Mar-30 12:53 UTC.
Position N 43°51' E 023°19'.

Length 93 m; draft 1.8 m.

Type: Cargo ship. MMSI: 272068800.

Date/timePositionNaut miles runAvg speedWind from/ knotsBaromVisibWave heightAir tempDewpointWater temp
2017-Mar-26 17:10N 43°51' E 023°19'4 5.7
2017-Mar-26 16:31N 43°50' E 023°14'0 0.0
2017-Mar-26 15:30N 43°50' E 023°14'0 0.0
2017-Mar-25 20:26N 43°50' E 023°15'1 0.1
2017-Mar-25 11:26N 43°50' E 023°15'0 0.0
2017-Mar-25 10:26N 43°50' E 023°15'0 0.0
2017-Mar-25 09:31N 43°50' E 023°15'0 0.0
2017-Mar-25 08:26N 43°50' E 023°15'0 0.0
2017-Mar-25 07:32N 43°50' E 023°15'0 0.0
2017-Mar-25 06:04N 43°50' E 023°15'0 0.0
2017-Mar-25 05:31N 43°50' E 023°15'0 0.0
2017-Mar-25 04:33N 43°50' E 023°15'0 0.0
2017-Mar-25 03:33N 43°50' E 023°15'0 0.0
2017-Mar-25 02:34N 43°50' E 023°15'0 0.0
2017-Mar-25 01:33N 43°50' E 023°15'0 0.0
2017-Mar-25 00:33N 43°50' E 023°15'0 0.0
2017-Mar-24 23:33N 43°50' E 023°15'0 0.0
2017-Mar-24 22:33N 43°50' E 023°15'0 0.0
2017-Mar-24 21:33N 43°50' E 023°15'0 0.0
2017-Mar-24 20:33N 43°50' E 023°15'0 0.0
2017-Mar-24 19:33N 43°50' E 023°15'0 0.0
2017-Mar-24 18:32N 43°50' E 023°15'0 0.0
2017-Mar-24 11:18N 43°50' E 023°15'0 0.0
2017-Mar-24 07:07N 43°50' E 023°15'0 0.0
2017-Mar-24 06:31N 43°50' E 023°15'0 0.0
2017-Mar-24 05:33N 43°50' E 023°15'0 0.0
2017-Mar-24 04:33N 43°50' E 023°15'0 0.0
2017-Mar-24 03:33N 43°50' E 023°15'0 0.0
2017-Mar-24 00:28N 43°50' E 023°15'0 0.0
2017-Mar-23 23:32N 43°50' E 023°15'0 0.0
2017-Mar-23 22:32N 43°50' E 023°15'0 0.0
2017-Mar-23 21:33N 43°50' E 023°15'0 0.0
2017-Mar-23 20:33N 43°50' E 023°15'0 0.0
2017-Mar-23 19:32N 43°50' E 023°15'0 0.0
2017-Mar-23 18:28N 43°50' E 023°15'0 0.0
2017-Mar-23 04:16N 43°50' E 023°15'0 0.0
2017-Mar-23 03:31N 43°50' E 023°15'0 0.0
2017-Mar-23 01:28N 43°50' E 023°15'0 0.0
2017-Mar-23 00:20N 43°50' E 023°15'0 0.0
2017-Mar-22 23:33N 43°50' E 023°15'0 0.0
2017-Mar-22 22:32N 43°50' E 023°15'0 0.0
2017-Mar-22 21:31N 43°50' E 023°15'0 0.0
2017-Mar-22 20:31N 43°50' E 023°15'0 0.0
2017-Mar-22 19:33N 43°50' E 023°15'0 0.0
2017-Mar-22 05:05N 43°50' E 023°15'0 0.0
2017-Mar-22 04:34N 43°50' E 023°15'0 0.0
2017-Mar-22 03:33N 43°50' E 023°15'0 0.0
2017-Mar-22 02:33N 43°50' E 023°15'0 0.0
2017-Mar-22 00:32N 43°50' E 023°15'0 0.0
2017-Mar-21 23:33N 43°50' E 023°15'0 0.0
2017-Mar-21 22:33N 43°50' E 023°15'0 0.0
2017-Mar-21 21:31N 43°50' E 023°15'0 0.0
2017-Mar-21 20:26N 43°50' E 023°15'0 0.0
2017-Mar-21 19:31N 43°50' E 023°15'0 0.0
2017-Mar-21 08:13N 43°50' E 023°15'0 0.0
2017-Mar-21 06:07N 43°50' E 023°15'0 0.0
2017-Mar-21 05:33N 43°50' E 023°15'0 0.0
2017-Mar-21 04:32N 43°50' E 023°15'0 0.0
2017-Mar-21 02:33N 43°50' E 023°15'0 0.0
2017-Mar-21 01:34N 43°50' E 023°15'0 0.0
2017-Mar-21 00:32N 43°50' E 023°15'0 0.0
2017-Mar-20 23:33N 43°50' E 023°15'0 0.0
2017-Mar-20 10:30N 43°50' E 023°15'0 0.0
2017-Mar-20 06:32N 43°50' E 023°15'0 0.0
2017-Mar-20 05:33N 43°50' E 023°15'0 0.0
2017-Mar-20 04:30N 43°50' E 023°15'0 0.0
2017-Mar-20 03:32N 43°50' E 023°15'0 0.0
2017-Mar-20 02:29N 43°50' E 023°15'0 0.0
2017-Mar-20 01:32N 43°50' E 023°15'0 0.0
2017-Mar-20 00:33N 43°50' E 023°15'0 0.0
2017-Mar-19 23:20N 43°50' E 023°15'0 0.0
2017-Mar-19 22:25N 43°50' E 023°15'0 0.0
2017-Mar-19 19:30N 43°50' E 023°15'0 0.0
2017-Mar-19 15:14N 43°50' E 023°15'1 0.1
2017-Mar-19 06:26N 43°50' E 023°14'3 0.2
2017-Mar-18 16:33N 43°51' E 023°18'27 3.3
2017-Mar-18 08:32N 43°45' E 023°54'  

Dump ship's entire track history